Time;durP1;ratioP1;P1;durP2;ratioP2;P2;SDS_P1;SDS_P2;PMS_P1;PMS_P2;Temp;Humidity;BMP_temperature;BMP_pressure;BME280_temperature;BME280_humidity;BME280_pressure;Samples;Min_cycle;Max_cycle;Signal;HPM_P1;HPM_P2
2023/10/15 00:00:17;;;;;;;0.28;0.28;;;13.10;99.90;;;;;;7395064;19;20164;-76
2023/10/15 00:02:46;;;;;;;0.43;0.43;;;13.00;99.90;;;;;;7395160;19;20138;-76
2023/10/15 00:05:20;;;;;;;0.50;0.50;;;13.10;99.90;;;;;;7393245;19;20146;-75
2023/10/15 00:07:47;;;;;;;2.53;0.50;;;13.00;99.90;;;;;;7393306;19;20149;-75
2023/10/15 00:10:16;;;;;;;0.55;0.25;;;12.90;99.90;;;;;;7392112;19;20142;-76
2023/10/15 00:12:44;;;;;;;0.95;0.82;;;12.80;99.90;;;;;;7393141;19;20135;-76
2023/10/15 00:15:15;;;;;;;0.75;0.50;;;12.90;99.90;;;;;;7393379;19;20146;-75
2023/10/15 00:17:43;;;;;;;0.98;0.70;;;12.90;99.90;;;;;;7392281;19;20184;-75
2023/10/15 00:20:16;;;;;;;0.40;0.40;;;12.90;99.90;;;;;;7392914;19;20135;-76
2023/10/15 00:22:48;;;;;;;0.40;0.40;;;12.90;99.90;;;;;;7394108;19;20143;-76
2023/10/15 00:25:16;;;;;;;0.75;0.55;;;13.00;99.90;;;;;;7389247;19;20146;-76
2023/10/15 00:27:42;;;;;;;0.47;0.35;;;13.10;99.90;;;;;;7393238;19;20156;-75
2023/10/15 00:30:19;;;;;;;1.20;0.60;;;13.10;99.90;;;;;;7391167;19;20143;-76
2023/10/15 00:32:47;;;;;;;0.73;0.50;;;12.90;99.90;;;;;;7392946;19;20138;-76
2023/10/15 00:35:14;;;;;;;0.38;0.38;;;12.90;99.90;;;;;;7391550;19;20143;-75
2023/10/15 00:37:54;;;;;;;1.60;1.10;;;12.80;99.90;;;;;;7391659;19;20172;-74
2023/10/15 00:40:22;;;;;;;0.90;0.70;;;12.90;99.90;;;;;;7395120;19;20134;-76
2023/10/15 00:42:47;;;;;;;0.55;0.55;;;13.00;99.90;;;;;;7392267;19;20158;-76
2023/10/15 00:45:20;;;;;;;1.08;0.57;;;13.00;99.90;;;;;;7392527;19;20134;-76
2023/10/15 00:50:38;;;;;;;0.50;0.50;;;13.00;99.90;;;;;;7393138;19;20126;-76
2023/10/15 00:53:21;;;;;;;0.30;0.30;;;12.90;99.90;;;;;;7392062;19;20162;-75
2023/10/15 00:55:52;;;;;;;0.50;0.30;;;12.90;99.90;;;;;;7390581;19;20165;-76
2023/10/15 01:03:55;;;;;;;0.20;0.20;;;12.80;99.90;;;;;;7391210;19;20146;-76
2023/10/15 01:09:50;;;;;;;0.50;0.50;;;12.80;99.90;;;;;;7393096;19;20437;-75
2023/10/15 01:12:19;;;;;;;0.75;0.73;;;13.00;99.90;;;;;;7391151;19;20160;-75
2023/10/15 01:14:45;;;;;;;0.43;0.43;;;13.00;99.90;;;;;;7392523;19;20223;-76
2023/10/15 01:17:11;;;;;;;0.68;0.30;;;12.80;99.90;;;;;;7384702;19;20231;-76
2023/10/15 01:19:37;;;;;;;0.80;0.50;;;12.90;99.90;;;;;;7390786;19;20139;-76
2023/10/15 01:22:04;;;;;;;0.22;0.22;;;13.00;99.90;;;;;;7392807;19;20718;-75
2023/10/15 01:24:41;;;;;;;0.95;0.70;;;13.10;99.90;;;;;;7390866;19;20141;-75
2023/10/15 01:27:10;;;;;;;0.50;0.50;;;13.10;99.90;;;;;;7390794;19;20154;-75
2023/10/15 01:29:40;;;;;;;0.82;0.50;;;13.10;99.90;;;;;;7391182;19;20171;-75
2023/10/15 01:32:19;;;;;;;1.45;0.80;;;13.10;99.90;;;;;;7392487;19;20123;-76
2023/10/15 01:34:45;;;;;;;0.43;0.43;;;13.20;99.90;;;;;;7390916;19;20143;-75
2023/10/15 01:37:24;;;;;;;0.32;0.32;;;13.00;99.90;;;;;;7392265;19;20553;-76
2023/10/15 01:42:54;;;;;;;0.65;0.40;;;13.10;99.90;;;;;;7386862;19;20153;-75
2023/10/15 01:45:31;;;;;;;0.30;0.30;;;13.30;99.90;;;;;;7387462;19;20134;-75
2023/10/15 01:48:13;;;;;;;0.40;0.40;;;13.30;99.90;;;;;;7391213;19;20134;-74
2023/10/15 01:50:51;;;;;;;0.40;0.40;;;13.30;99.90;;;;;;7393505;19;20567;-75
2023/10/15 01:53:23;;;;;;;0.30;0.30;;;13.30;99.90;;;;;;7388451;19;20130;-76
2023/10/15 01:56:04;;;;;;;0.50;0.50;;;13.10;99.90;;;;;;7390738;19;20158;-76
2023/10/15 01:58:31;;;;;;;0.30;0.30;;;13.10;99.90;;;;;;7392546;19;20138;-76
2023/10/15 02:01:13;;;;;;;0.43;0.40;;;13.10;99.90;;;;;;7389337;19;20130;-76
2023/10/15 02:03:41;;;;;;;0.30;0.30;;;13.10;99.90;;;;;;7388308;19;20146;-75
2023/10/15 02:06:07;;;;;;;0.30;0.30;;;13.10;99.90;;;;;;7385294;19;20222;-75
2023/10/15 02:08:39;;;;;;;0.40;0.35;;;13.10;99.90;;;;;;7389297;19;20165;-76
2023/10/15 02:11:16;;;;;;;0.40;0.40;;;13.20;99.90;;;;;;7389899;19;20139;-75
2023/10/15 02:13:45;;;;;;;0.50;0.40;;;13.20;99.90;;;;;;7389555;19;20131;-76
2023/10/15 02:16:15;;;;;;;0.50;0.30;;;13.10;99.90;;;;;;7390280;19;20141;-75
2023/10/15 02:18:44;;;;;;;0.50;0.50;;;13.10;99.90;;;;;;7389087;19;20165;-75
2023/10/15 02:21:15;;;;;;;0.30;0.30;;;13.20;99.90;;;;;;7390957;19;20158;-76
2023/10/15 02:23:51;;;;;;;0.47;0.47;;;13.20;99.90;;;;;;7385925;19;20131;-76
2023/10/15 02:26:23;;;;;;;1.65;0.40;;;13.10;99.90;;;;;;7384890;19;20549;-76
2023/10/15 02:28:53;;;;;;;0.57;0.45;;;13.10;99.90;;;;;;7390356;19;20139;-75
2023/10/15 02:31:23;;;;;;;0.73;0.52;;;13.00;99.90;;;;;;7384197;19;20623;-75
2023/10/15 02:33:50;;;;;;;0.50;0.50;;;13.10;99.90;;;;;;7393143;19;20606;-76
2023/10/15 02:36:16;;;;;;;1.20;0.63;;;13.00;99.90;;;;;;7389052;19;20153;-76
2023/10/15 02:38:52;;;;;;;0.98;0.70;;;13.00;99.90;;;;;;7386441;19;20138;-75
2023/10/15 02:41:24;;;;;;;0.35;0.35;;;13.10;99.90;;;;;;7387483;19;20209;-75
2023/10/15 02:43:58;;;;;;;0.65;0.65;;;13.20;99.90;;;;;;7423950;19;20841;-75
2023/10/15 02:48:58;;;;;;;0.40;0.40;;;13.30;99.90;;;;;;7424547;19;20153;-75
2023/10/15 02:51:24;;;;;;;0.30;0.30;;;13.30;99.90;;;;;;7424598;19;20146;-76
2023/10/15 02:53:52;;;;;;;1.50;0.55;;;13.20;99.90;;;;;;7425353;19;20156;-75
2023/10/15 02:56:20;;;;;;;0.30;0.30;;;13.10;99.90;;;;;;7424424;19;20786;-76
2023/10/15 02:58:46;;;;;;;2.55;0.40;;;13.20;99.90;;;;;;7426176;19;20145;-75
2023/10/15 03:01:19;;;;;;;0.40;0.40;;;13.30;99.90;;;;;;7424452;19;20160;-75
2023/10/15 03:03:55;;;;;;;0.40;0.40;;;13.30;99.90;;;;;;7421621;19;20150;-76
2023/10/15 03:06:25;;;;;;;0.60;0.40;;;13.10;99.90;;;;;;7423181;19;20287;-75
2023/10/15 03:08:51;;;;;;;0.52;0.30;;;13.30;99.90;;;;;;7425017;19;20150;-76
2023/10/15 03:11:22;;;;;;;0.20;0.20;;;13.20;99.90;;;;;;7422655;19;20146;-76
2023/10/15 03:13:55;;;;;;;1.55;0.52;;;13.20;99.90;;;;;;7424702;19;20154;-76
2023/10/15 03:16:26;;;;;;;0.20;0.20;;;13.30;99.90;;;;;;7421962;19;20160;-75
2023/10/15 03:18:52;;;;;;;0.30;0.30;;;13.30;99.90;;;;;;7424396;19;20154;-75
2023/10/15 03:21:30;;;;;;;0.30;0.30;;;13.20;99.90;;;;;;7423102;19;20645;-75
2023/10/15 03:23:58;;;;;;;0.30;0.30;;;13.30;99.90;;;;;;7425255;19;20147;-75
2023/10/15 03:26:24;;;;;;;0.75;0.50;;;13.10;99.90;;;;;;7423957;19;20141;-75
2023/10/15 03:28:58;;;;;;;0.30;0.30;;;13.00;99.90;;;;;;7422084;19;20137;-76
2023/10/15 03:31:27;;;;;;;1.17;0.70;;;12.90;99.90;;;;;;7424340;19;20486;-75
2023/10/15 03:36:57;;;;;;;0.38;0.38;;;12.80;99.90;;;;;;7424499;19;20154;-75
2023/10/15 03:44:44;;;;;;;0.35;0.35;;;13.00;99.90;;;;;;7421379;19;20150;-76
2023/10/15 03:47:15;;;;;;;3.15;0.70;;;13.00;99.90;;;;;;7421146;19;20134;-75
2023/10/15 03:49:44;;;;;;;0.93;0.55;;;13.00;99.90;;;;;;7425841;19;20138;-75
2023/10/15 03:52:14;;;;;;;0.30;0.30;;;12.90;99.90;;;;;;7424751;19;20595;-76
2023/10/15 03:54:42;;;;;;;1.55;0.60;;;13.00;99.90;;;;;;7402091;19;20221;-74
2023/10/15 03:57:09;;;;;;;1.02;0.50;;;13.00;99.90;;;;;;7393432;19;20154;-76
2023/10/15 03:59:42;;;;;;;0.20;0.20;;;13.10;99.90;;;;;;7395170;19;20131;-75
2023/10/15 04:02:22;;;;;;;0.93;0.85;;;12.90;99.90;;;;;;7394073;19;20551;-75
2023/10/15 04:04:56;;;;;;;0.52;0.40;;;12.90;99.90;;;;;;7391775;19;20142;-75
2023/10/15 04:07:23;;;;;;;0.60;0.30;;;12.90;99.90;;;;;;7393777;19;20147;-76
2023/10/15 04:09:50;;;;;;;0.38;0.38;;;13.10;99.90;;;;;;7394276;19;20135;-76
2023/10/15 04:12:18;;;;;;;1.17;0.67;;;13.10;99.90;;;;;;7395891;19;20142;-76
2023/10/15 04:14:44;;;;;;;0.47;0.45;;;13.20;99.90;;;;;;7393179;19;20496;-76
2023/10/15 04:17:15;;;;;;;0.60;0.30;;;13.20;99.90;;;;;;7395153;19;20157;-76
2023/10/15 04:19:42;;;;;;;0.30;0.30;;;13.20;99.90;;;;;;7391667;19;20138;-76
2023/10/15 04:22:14;;;;;;;0.22;0.22;;;13.20;99.90;;;;;;7393317;19;20162;-76
2023/10/15 04:24:44;;;;;;;0.95;0.82;;;13.10;99.90;;;;;;7394471;19;20146;-75
2023/10/15 04:27:16;;;;;;;0.75;0.30;;;13.10;99.90;;;;;;7393466;19;20550;-76
2023/10/15 04:29:48;;;;;;;0.30;0.30;;;13.00;99.90;;;;;;7393230;19;20210;-75
2023/10/15 04:32:25;;;;;;;0.30;0.30;;;13.10;99.90;;;;;;7393010;19;20165;-76
2023/10/15 04:34:52;;;;;;;0.30;0.30;;;13.10;99.90;;;;;;7392775;19;20130;-75
2023/10/15 04:37:20;;;;;;;0.30;0.30;;;13.10;99.90;;;;;;7394590;19;20131;-75
2023/10/15 04:39:55;;;;;;;0.60;0.60;;;13.10;99.90;;;;;;7393229;19;20147;-76
2023/10/15 04:42:21;;;;;;;0.35;0.35;;;13.10;99.90;;;;;;7391471;19;20150;-76
2023/10/15 04:44:50;;;;;;;0.25;0.20;;;13.10;99.90;;;;;;7392777;19;20143;-74
2023/10/15 04:47:36;;;;;;;0.45;0.45;;;13.10;99.90;;;;;;7391913;19;20126;-75
2023/10/15 04:50:14;;;;;;;0.93;0.30;;;13.10;99.90;;;;;;7393629;19;20135;-75
2023/10/15 04:52:41;;;;;;;0.85;0.43;;;13.00;99.90;;;;;;7391654;19;20139;-76
2023/10/15 04:55:08;;;;;;;0.25;0.25;;;13.00;99.90;;;;;;7391071;19;20146;-76
2023/10/15 04:57:34;;;;;;;0.57;0.40;;;13.00;99.90;;;;;;7392764;19;20143;-75
2023/10/15 04:59:59;;;;;;;0.77;0.35;;;13.00;99.90;;;;;;7391735;19;20147;-76
2023/10/15 05:02:25;;;;;;;0.47;0.47;;;13.00;99.90;;;;;;7391320;19;20149;-75
2023/10/15 05:04:52;;;;;;;0.40;0.32;;;13.00;99.90;;;;;;7390060;19;20198;-76
2023/10/15 05:07:18;;;;;;;0.55;0.38;;;13.10;99.90;;;;;;7390861;19;20231;-76
2023/10/15 05:09:44;;;;;;;0.20;0.20;;;13.20;99.90;;;;;;7388967;19;20139;-76
2023/10/15 05:12:12;;;;;;;0.30;0.30;;;13.00;99.90;;;;;;7392483;19;20504;-75
2023/10/15 05:14:38;;;;;;;0.50;0.50;;;13.00;99.90;;;;;;7388161;19;20131;-76
2023/10/15 05:17:04;;;;;;;0.40;0.30;;;12.90;99.90;;;;;;7392165;19;20177;-75
2023/10/15 05:19:30;;;;;;;0.30;0.30;;;12.90;99.90;;;;;;7391264;19;20166;-76
2023/10/15 05:21:56;;;;;;;0.30;0.30;;;12.80;99.90;;;;;;7393742;19;20138;-76
2023/10/15 05:24:21;;;;;;;0.45;0.45;;;12.90;99.90;;;;;;7391588;19;20147;-77
2023/10/15 05:26:50;;;;;;;1.30;0.60;;;12.90;99.90;;;;;;7390868;19;20134;-75
2023/10/15 05:29:16;;;;;;;0.30;0.30;;;13.00;99.90;;;;;;7389674;19;20214;-76
2023/10/15 05:31:43;;;;;;;0.20;0.20;;;13.00;99.90;;;;;;7391882;19;20135;-76
2023/10/15 05:34:09;;;;;;;1.25;0.45;;;13.00;99.90;;;;;;7389588;19;20149;-76
2023/10/15 05:36:35;;;;;;;0.20;0.20;;;13.00;99.90;;;;;;7391725;19;20141;-76
2023/10/15 05:39:06;;;;;;;1.08;0.80;;;12.90;99.90;;;;;;7390846;19;20158;-76
2023/10/15 05:41:32;;;;;;;0.30;0.30;;;12.90;99.90;;;;;;7390983;19;20540;-76
2023/10/15 05:43:59;;;;;;;0.45;0.35;;;12.90;99.90;;;;;;7388443;19;20210;-75
2023/10/15 05:46:25;;;;;;;0.43;0.40;;;12.90;99.90;;;;;;7391290;19;20169;-76
2023/10/15 05:48:51;;;;;;;0.43;0.40;;;12.90;99.90;;;;;;7391765;19;20135;-76
2023/10/15 05:51:18;;;;;;;0.88;0.50;;;12.80;99.90;;;;;;7391211;19;20154;-75
2023/10/15 05:53:44;;;;;;;0.52;0.50;;;12.90;99.90;;;;;;7389052;19;20163;-76
2023/10/15 05:56:09;;;;;;;0.43;0.40;;;12.90;99.90;;;;;;7391483;19;20134;-76
2023/10/15 05:58:36;;;;;;;0.30;0.30;;;12.90;99.90;;;;;;7390695;19;20133;-75
2023/10/15 06:01:03;;;;;;;0.47;0.40;;;13.00;99.90;;;;;;7391124;19;20138;-76
2023/10/15 06:03:30;;;;;;;0.35;0.30;;;12.90;99.90;;;;;;7387306;19;20202;-77
2023/10/15 06:05:58;;;;;;;0.50;0.50;;;12.90;99.90;;;;;;7390572;19;20154;-76
2023/10/15 06:08:24;;;;;;;0.35;0.35;;;12.80;99.90;;;;;;7390449;19;20213;-76
2023/10/15 06:10:50;;;;;;;0.30;0.30;;;12.80;99.90;;;;;;7389411;19;20170;-76
2023/10/15 06:13:16;;;;;;;0.22;0.22;;;12.90;99.90;;;;;;7390785;19;20139;-75
2023/10/15 06:15:42;;;;;;;0.50;0.38;;;12.90;99.90;;;;;;7391134;19;20138;-75
2023/10/15 06:18:11;;;;;;;1.10;0.53;;;13.00;99.90;;;;;;7389355;19;20647;-76
2023/10/15 06:20:37;;;;;;;2.15;0.45;;;13.00;99.90;;;;;;7385028;19;20342;-73
2023/10/15 06:23:07;;;;;;;1.05;0.40;;;13.10;99.90;;;;;;7388464;19;20150;-74
2023/10/15 06:25:35;;;;;;;1.35;0.60;;;13.10;99.90;;;;;;7390118;19;20133;-74
2023/10/15 06:28:02;;;;;;;0.30;0.30;;;13.00;99.90;;;;;;7388996;19;20146;-73
2023/10/15 06:30:29;;;;;;;0.50;0.40;;;13.00;99.90;;;;;;7386672;19;20611;-73
2023/10/15 06:32:54;;;;;;;0.77;0.77;;;13.00;99.90;;;;;;7391107;19;20134;-74
2023/10/15 06:35:22;;;;;;;0.45;0.45;;;13.00;99.90;;;;;;7386098;19;20150;-72
2023/10/15 06:37:49;;;;;;;0.70;0.52;;;13.00;99.90;;;;;;7392181;19;20140;-73
2023/10/15 06:40:16;;;;;;;1.38;0.75;;;12.90;99.90;;;;;;7389283;19;20130;-73
2023/10/15 06:42:43;;;;;;;0.40;0.40;;;12.90;99.90;;;;;;7389393;19;20174;-74
2023/10/15 06:45:10;;;;;;;0.40;0.40;;;13.00;99.90;;;;;;7387465;19;20142;-74
2023/10/15 06:47:37;;;;;;;1.05;0.50;;;13.00;99.90;;;;;;7387715;19;20142;-73
2023/10/15 06:50:06;;;;;;;0.68;0.50;;;13.10;99.90;;;;;;7389113;19;20850;-73
2023/10/15 06:52:38;;;;;;;0.40;0.40;;;13.20;99.90;;;;;;7388294;19;20155;-73
2023/10/15 06:55:10;;;;;;;1.40;0.40;;;13.20;99.90;;;;;;7388006;19;20138;-74
2023/10/15 06:57:40;;;;;;;0.40;0.40;;;13.20;99.90;;;;;;7387123;19;20253;-73
2023/10/15 07:00:10;;;;;;;0.70;0.40;;;13.20;99.90;;;;;;7388931;19;20204;-75
2023/10/15 07:02:37;;;;;;;0.77;0.40;;;13.20;99.90;;;;;;7387083;19;20154;-74
2023/10/15 07:05:04;;;;;;;0.47;0.45;;;13.30;99.90;;;;;;7388025;19;20134;-75
2023/10/15 07:07:30;;;;;;;1.38;0.70;;;13.30;99.90;;;;;;7387759;19;20158;-75
2023/10/15 07:09:59;;;;;;;0.30;0.30;;;13.40;99.90;;;;;;7384052;19;20151;-73
2023/10/15 07:12:25;;;;;;;0.47;0.28;;;13.40;99.90;;;;;;7387502;19;20142;-74
2023/10/15 07:14:51;;;;;;;0.63;0.50;;;13.40;99.90;;;;;;7389211;19;20135;-74
2023/10/15 07:17:17;;;;;;;0.50;0.43;;;13.40;99.90;;;;;;7389080;19;20149;-73
2023/10/15 07:19:43;;;;;;;0.40;0.40;;;13.30;99.90;;;;;;7386506;19;20126;-74
2023/10/15 07:22:09;;;;;;;2.00;1.33;;;13.30;99.90;;;;;;7387156;19;20584;-74
2023/10/15 07:24:35;;;;;;;1.35;0.70;;;13.30;99.90;;;;;;7387105;19;20232;-73
2023/10/15 07:27:01;;;;;;;7.88;6.55;;;13.20;99.90;;;;;;7386948;19;20137;-73
2023/10/15 07:29:30;;;;;;;2.08;1.88;;;13.20;99.90;;;;;;7388741;19;20142;-74
2023/10/15 07:31:55;;;;;;;2.78;0.80;;;13.10;99.90;;;;;;7394278;19;20576;-72
2023/10/15 07:34:22;;;;;;;0.87;0.60;;;13.20;99.90;;;;;;7395912;19;20150;-72
2023/10/15 07:36:51;;;;;;;1.27;1.05;;;13.20;99.90;;;;;;7393815;19;20228;-74
2023/10/15 07:39:17;;;;;;;2.83;1.50;;;13.20;99.90;;;;;;7393388;19;20202;-74
2023/10/15 07:41:45;;;;;;;2.17;0.70;;;13.30;99.90;;;;;;7393640;19;20177;-72
2023/10/15 07:44:12;;;;;;;0.88;0.70;;;13.30;99.90;;;;;;7392071;19;20177;-74
2023/10/15 07:46:39;;;;;;;0.83;0.73;;;13.20;99.90;;;;;;7394904;19;20146;-73
2023/10/15 07:49:07;;;;;;;0.43;0.43;;;12.90;99.90;;;;;;7392843;19;20130;-74
2023/10/15 07:51:33;;;;;;;1.92;1.08;;;13.10;99.90;;;;;;7394621;19;20966;-72
2023/10/15 07:53:59;;;;;;;0.63;0.60;;;13.10;99.90;;;;;;7393640;19;20147;-75
2023/10/15 07:56:25;;;;;;;0.60;0.50;;;12.90;99.90;;;;;;7393652;19;20200;-74
2023/10/15 07:58:50;;;;;;;0.40;0.40;;;12.80;99.90;;;;;;7391932;19;20163;-72
2023/10/15 08:01:16;;;;;;;0.43;0.43;;;13.00;99.90;;;;;;7394255;19;20158;-73
2023/10/15 08:03:42;;;;;;;0.85;0.60;;;13.30;99.90;;;;;;7391977;19;20239;-75
2023/10/15 08:06:08;;;;;;;1.60;1.02;;;13.10;99.90;;;;;;7391847;19;20186;-74
2023/10/15 08:08:34;;;;;;;0.30;0.30;;;13.10;99.90;;;;;;7393988;19;20146;-73
2023/10/15 08:11:01;;;;;;;0.98;0.80;;;12.90;99.90;;;;;;7390355;19;20151;-74
2023/10/15 08:13:27;;;;;;;1.05;0.95;;;13.00;99.90;;;;;;7391547;19;20162;-74
2023/10/15 08:15:54;;;;;;;0.50;0.43;;;13.00;99.90;;;;;;7389499;19;20476;-74
2023/10/15 08:18:20;;;;;;;0.50;0.50;;;13.00;99.90;;;;;;7391701;19;20146;-74
2023/10/15 08:20:46;;;;;;;1.20;0.40;;;13.10;99.90;;;;;;7392502;19;20138;-75
2023/10/15 08:23:13;;;;;;;2.17;0.63;;;13.00;99.90;;;;;;7391299;19;20162;-72
2023/10/15 08:25:39;;;;;;;0.60;0.60;;;13.30;99.90;;;;;;7391131;19;20185;-73
2023/10/15 08:28:05;;;;;;;0.30;0.30;;;13.10;99.90;;;;;;7395432;19;20552;-73
2023/10/15 08:30:32;;;;;;;0.38;0.38;;;13.10;99.90;;;;;;7391788;19;20150;-74
2023/10/15 08:32:58;;;;;;;0.20;0.20;;;13.30;99.90;;;;;;7394049;19;20477;-74
2023/10/15 08:35:24;;;;;;;0.38;0.38;;;13.10;99.90;;;;;;7391265;19;20150;-73
2023/10/15 08:37:50;;;;;;;0.88;0.45;;;13.00;99.90;;;;;;7393192;19;20178;-74
2023/10/15 08:40:16;;;;;;;0.40;0.40;;;13.00;99.90;;;;;;7392792;19;20134;-73
2023/10/15 08:42:50;;;;;;;0.50;0.50;;;13.30;99.90;;;;;;7390620;19;20209;-74
2023/10/15 08:45:21;;;;;;;0.30;0.30;;;13.30;99.90;;;;;;7393495;19;20483;-73
2023/10/15 08:47:48;;;;;;;0.52;0.50;;;13.50;99.90;;;;;;7392409;19;20138;-73
2023/10/15 08:50:16;;;;;;;0.22;0.22;;;13.60;99.90;;;;;;7390568;19;20149;-74
2023/10/15 08:52:44;;;;;;;0.50;0.50;;;13.40;99.90;;;;;;7393400;19;20141;-74
2023/10/15 08:55:11;;;;;;;1.17;0.77;;;13.40;99.90;;;;;;7390196;19;20142;-73
2023/10/15 08:57:37;;;;;;;0.40;0.40;;;13.30;99.90;;;;;;7394242;19;20138;-73
2023/10/15 09:00:05;;;;;;;0.93;0.63;;;13.20;99.90;;;;;;7390666;19;20225;-74
2023/10/15 09:02:32;;;;;;;1.02;0.55;;;13.40;99.90;;;;;;7392127;19;20138;-74
2023/10/15 09:04:57;;;;;;;0.95;0.63;;;13.50;99.90;;;;;;7389451;19;20127;-73
2023/10/15 09:07:24;;;;;;;0.63;0.55;;;13.70;99.90;;;;;;7391235;19;20610;-73
2023/10/15 09:09:52;;;;;;;0.55;0.55;;;13.70;99.90;;;;;;7390585;19;20138;-73
2023/10/15 09:12:18;;;;;;;0.28;0.28;;;13.80;99.90;;;;;;7393416;19;20498;-73
2023/10/15 09:14:46;;;;;;;1.15;0.30;;;13.70;99.90;;;;;;7390336;19;20145;-73
2023/10/15 09:17:16;;;;;;;1.08;0.63;;;13.60;99.90;;;;;;7392407;19;20130;-73
2023/10/15 09:19:48;;;;;;;0.40;0.40;;;13.40;99.90;;;;;;7391109;19;20142;-74
2023/10/15 09:22:14;;;;;;;0.30;0.30;;;13.40;99.90;;;;;;7393268;19;20488;-73
2023/10/15 09:24:44;;;;;;;0.85;0.60;;;13.50;99.90;;;;;;7391693;19;20135;-73
2023/10/15 09:27:11;;;;;;;0.40;0.40;;;13.50;99.90;;;;;;7387771;19;20146;-73
2023/10/15 09:29:38;;;;;;;0.40;0.40;;;13.50;99.90;;;;;;7391122;19;20134;-73
2023/10/15 09:32:06;;;;;;;0.43;0.43;;;13.40;99.90;;;;;;7389709;19;20138;-73
2023/10/15 09:34:33;;;;;;;1.33;0.73;;;13.40;99.90;;;;;;7389435;19;20162;-73
2023/10/15 09:36:59;;;;;;;0.30;0.30;;;13.60;99.90;;;;;;7391727;19;20495;-73
2023/10/15 09:39:29;;;;;;;1.00;0.68;;;13.70;99.90;;;;;;7389676;19;20146;-75
2023/10/15 09:42:02;;;;;;;0.85;0.60;;;13.80;99.90;;;;;;7390476;19;20182;-73
2023/10/15 09:44:35;;;;;;;0.73;0.40;;;14.00;99.90;;;;;;7389801;19;20131;-74
2023/10/15 09:47:01;;;;;;;0.30;0.30;;;14.30;99.90;;;;;;7388877;19;20150;-73
2023/10/15 09:49:33;;;;;;;0.93;0.52;;;14.30;99.90;;;;;;7391767;19;20164;-73
2023/10/15 09:52:10;;;;;;;0.40;0.40;;;14.50;99.90;;;;;;7387211;19;20149;-74
2023/10/15 09:54:37;;;;;;;0.47;0.47;;;14.60;99.90;;;;;;7390591;19;20635;-74
2023/10/15 09:57:05;;;;;;;1.45;0.30;;;14.30;99.90;;;;;;7388581;19;20157;-73
2023/10/15 09:59:31;;;;;;;0.30;0.30;;;14.30;99.90;;;;;;7389084;19;20153;-73
2023/10/15 10:02:05;;;;;;;0.50;0.50;;;14.50;99.90;;;;;;7389719;19;20146;-73
2023/10/15 10:05:06;;;;;;;0.45;0.32;;;14.60;99.90;;;;;;7388977;19;20149;-74
2023/10/15 10:07:55;;;;;;;1.25;0.40;;;14.80;99.90;;;;;;7389962;19;20164;-73
2023/10/15 10:10:27;;;;;;;0.38;0.38;;;14.70;99.90;;;;;;7389900;19;20146;-73
2023/10/15 10:13:11;;;;;;;0.55;0.55;;;14.80;99.90;;;;;;7387254;19;20143;-74
2023/10/15 10:15:42;;;;;;;0.30;0.30;;;14.90;99.90;;;;;;7389924;19;20159;-75
2023/10/15 10:18:11;;;;;;;0.80;0.50;;;14.90;99.90;;;;;;7390749;19;20152;-73
2023/10/15 10:20:38;;;;;;;0.30;0.30;;;14.70;99.90;;;;;;7389432;19;20147;-73
2023/10/15 10:23:05;;;;;;;0.30;0.30;;;14.30;99.90;;;;;;7390094;19;20210;-73
2023/10/15 10:25:42;;;;;;;1.08;0.30;;;14.20;99.90;;;;;;7389148;19;20139;-73
2023/10/15 10:28:15;;;;;;;0.65;0.55;;;14.20;99.90;;;;;;7389822;19;20138;-73
2023/10/15 10:30:54;;;;;;;0.40;0.40;;;14.20;99.90;;;;;;7389389;19;20513;-73
2023/10/15 10:33:48;;;;;;;1.20;0.68;;;14.20;99.90;;;;;;7387462;19;20146;-73
2023/10/15 10:36:21;;;;;;;0.40;0.40;;;13.90;99.90;;;;;;7390629;19;20137;-74
2023/10/15 10:39:10;;;;;;;0.20;0.20;;;14.00;99.90;;;;;;7388471;19;20606;-73
2023/10/15 10:41:38;;;;;;;0.52;0.52;;;14.20;99.90;;;;;;7388596;19;20150;-74
2023/10/15 10:44:06;;;;;;;0.30;0.30;;;14.30;99.90;;;;;;7386912;19;20143;-74
2023/10/15 10:46:41;;;;;;;0.88;0.82;;;14.30;99.90;;;;;;7388108;19;20142;-73
2023/10/15 10:49:13;;;;;;;1.40;0.85;;;14.20;99.90;;;;;;7387114;19;20142;-73
2023/10/15 10:51:40;;;;;;;0.40;0.40;;;14.10;99.90;;;;;;7388168;19;20158;-72
2023/10/15 10:54:06;;;;;;;0.50;0.40;;;14.20;99.90;;;;;;7389375;19;20166;-73
2023/10/15 10:56:44;;;;;;;0.20;0.20;;;14.20;99.90;;;;;;7389457;19;20145;-72
2023/10/15 10:59:12;;;;;;;1.55;0.55;;;13.90;99.90;;;;;;7391703;19;20144;-74
2023/10/15 11:01:39;;;;;;;0.30;0.30;;;13.90;99.90;;;;;;7386646;19;20146;-73
2023/10/15 11:04:06;;;;;;;0.52;0.47;;;13.70;99.90;;;;;;7388117;19;20134;-74
2023/10/15 11:06:42;;;;;;;0.40;0.30;;;13.70;99.90;;;;;;7393091;19;20147;-73
2023/10/15 11:09:22;;;;;;;0.43;0.40;;;13.50;99.90;;;;;;7395421;19;20150;-72
2023/10/15 11:11:50;;;;;;;0.30;0.30;;;13.50;99.90;;;;;;7396835;19;20147;-74
2023/10/15 11:14:18;;;;;;;0.52;0.35;;;13.30;99.90;;;;;;7396255;19;20490;-73
2023/10/15 11:16:47;;;;;;;0.50;0.40;;;13.40;99.90;;;;;;7395367;19;20127;-74
2023/10/15 11:19:28;;;;;;;0.28;0.28;;;13.30;99.90;;;;;;7394808;19;20611;-74
2023/10/15 11:21:55;;;;;;;0.38;0.38;;;13.30;99.90;;;;;;7396110;19;20130;-73
2023/10/15 11:24:26;;;;;;;0.20;0.20;;;13.40;99.90;;;;;;7391324;19;20127;-74
2023/10/15 11:26:56;;;;;;;0.20;0.20;;;13.40;99.90;;;;;;7394609;19;20170;-73
2023/10/15 11:29:25;;;;;;;1.15;0.30;;;13.40;99.90;;;;;;7394985;19;20502;-72
2023/10/15 11:31:56;;;;;;;0.25;0.25;;;13.30;99.90;;;;;;7393332;19;20150;-73
2023/10/15 11:34:24;;;;;;;0.57;0.57;;;13.50;99.90;;;;;;7393368;19;20600;-73
2023/10/15 11:36:55;;;;;;;0.30;0.30;;;13.70;99.90;;;;;;7395764;19;20506;-74
2023/10/15 11:42:09;;;;;;;0.30;0.30;;;13.90;99.90;;;;;;7392358;19;20155;-73
2023/10/15 11:44:44;;;;;;;0.52;0.40;;;14.10;99.90;;;;;;7394550;19;20194;-75
2023/10/15 11:47:24;;;;;;;0.20;0.20;;;14.40;99.90;;;;;;7393346;19;20134;-74
2023/10/15 11:49:50;;;;;;;0.40;0.40;;;14.20;99.90;;;;;;7392882;19;20803;-73
2023/10/15 11:52:22;;;;;;;1.98;0.52;;;14.20;99.90;;;;;;7393688;19;20517;-73
2023/10/15 11:54:50;;;;;;;0.57;0.50;;;14.40;99.90;;;;;;7393078;19;20152;-72
2023/10/15 11:57:24;;;;;;;0.43;0.32;;;14.40;99.90;;;;;;7397150;19;20162;-73
2023/10/15 11:59:51;;;;;;;0.60;0.52;;;14.50;99.90;;;;;;7394198;19;20654;-72
2023/10/15 12:02:17;;;;;;;0.98;0.50;;;14.60;99.90;;;;;;7393218;19;20143;-72
2023/10/15 12:04:43;;;;;;;0.50;0.30;;;14.90;99.90;;;;;;7392156;19;20450;-73
2023/10/15 12:07:15;;;;;;;0.55;0.40;;;15.10;99.90;;;;;;7391792;19;20161;-73
2023/10/15 12:09:47;;;;;;;0.30;0.30;;;15.10;99.90;;;;;;7391621;19;20138;-71
2023/10/15 12:12:13;;;;;;;1.55;0.60;;;14.90;99.90;;;;;;7393732;19;20139;-75
2023/10/15 12:14:40;;;;;;;1.00;0.40;;;14.50;99.90;;;;;;7390968;19;20150;-74
2023/10/15 12:17:05;;;;;;;0.52;0.40;;;14.50;99.90;;;;;;7392586;19;20139;-72
2023/10/15 12:19:31;;;;;;;1.08;0.40;;;14.40;99.90;;;;;;7393611;19;20135;-74
2023/10/15 12:21:59;;;;;;;0.20;0.20;;;14.30;99.90;;;;;;7393278;19;20644;-73
2023/10/15 12:24:26;;;;;;;0.85;0.43;;;14.30;99.90;;;;;;7393215;19;20146;-72
2023/10/15 12:26:52;;;;;;;0.45;0.30;;;14.20;99.90;;;;;;7392343;19;20174;-72
2023/10/15 12:29:21;;;;;;;0.40;0.40;;;14.40;99.90;;;;;;7394566;19;20134;-73
2023/10/15 12:31:52;;;;;;;0.75;0.30;;;14.40;99.90;;;;;;7395769;19;20170;-73
2023/10/15 12:34:20;;;;;;;0.43;0.43;;;14.40;99.90;;;;;;7392279;19;20164;-73
2023/10/15 12:36:45;;;;;;;0.35;0.35;;;14.30;99.90;;;;;;7392598;19;20218;-74
2023/10/15 12:39:11;;;;;;;0.30;0.30;;;14.30;99.90;;;;;;7391044;19;20550;-72
2023/10/15 12:41:38;;;;;;;1.52;0.50;;;14.40;99.90;;;;;;7391870;19;20516;-72
2023/10/15 12:44:10;;;;;;;1.92;0.75;;;14.20;99.90;;;;;;7390647;19;20138;-74
2023/10/15 12:46:36;;;;;;;1.80;0.73;;;14.40;99.90;;;;;;7391887;19;20135;-73
2023/10/15 12:49:07;;;;;;;0.77;0.60;;;14.10;99.90;;;;;;7392802;19;20150;-72
2023/10/15 12:51:34;;;;;;;0.50;0.38;;;14.20;99.90;;;;;;7390576;19;20141;-73
2023/10/15 12:54:00;;;;;;;0.80;0.35;;;14.00;99.90;;;;;;7392477;19;20166;-72
2023/10/15 12:56:29;;;;;;;0.30;0.30;;;14.00;99.90;;;;;;7390958;19;20130;-72
2023/10/15 12:58:55;;;;;;;0.65;0.52;;;13.80;99.90;;;;;;7391481;19;20182;-72
2023/10/15 13:01:20;;;;;;;0.20;0.20;;;13.90;99.90;;;;;;7393030;19;20162;-73
2023/10/15 13:03:49;;;;;;;0.55;0.47;;;13.90;99.90;;;;;;7390999;19;20147;-73
2023/10/15 13:06:19;;;;;;;0.45;0.30;;;14.00;99.90;;;;;;7390609;19;20150;-74
2023/10/15 13:08:46;;;;;;;1.13;0.60;;;14.40;99.90;;;;;;7392575;19;20134;-73
2023/10/15 13:11:12;;;;;;;0.52;0.50;;;14.90;99.90;;;;;;7387418;19;20138;-75
2023/10/15 13:13:41;;;;;;;1.02;0.73;;;15.00;99.90;;;;;;7388381;19;20544;-73
2023/10/15 13:16:08;;;;;;;0.50;0.45;;;14.70;99.90;;;;;;7388484;19;20202;-73
2023/10/15 13:18:38;;;;;;;0.95;0.52;;;14.90;99.90;;;;;;7390635;19;20164;-74
2023/10/15 13:21:05;;;;;;;0.20;0.20;;;14.90;99.90;;;;;;7391702;19;20167;-73
2023/10/15 13:23:31;;;;;;;1.65;0.63;;;14.90;99.90;;;;;;7388895;19;20543;-74
2023/10/15 13:25:57;;;;;;;0.30;0.30;;;14.70;99.90;;;;;;7387491;19;20206;-73